sensor_id;sensor_type;location;lat;lon;timestamp;pressure;altitude;pressure_sealevel;temperature;humidity
44385;BME280;30101;32.778;34.994;2023-01-28T00:04:50;97345.13;;;16.45;38.87
44385;BME280;30101;32.778;34.994;2023-01-28T00:09:53;97311.69;;;16.41;38.81
44385;BME280;30101;32.778;34.994;2023-01-28T00:14:57;97351.25;;;16.36;38.69
44385;BME280;30101;32.778;34.994;2023-01-28T00:20:00;97409.47;;;16.37;39.15
44385;BME280;30101;32.778;34.994;2023-01-28T00:25:04;97462.06;;;16.44;38.53
44385;BME280;30101;32.778;34.994;2023-01-28T00:30:08;97467.25;;;16.51;38.62
44385;BME280;30101;32.778;34.994;2023-01-28T00:35:12;97426.56;;;16.80;38.12
44385;BME280;30101;32.778;34.994;2023-01-28T00:40:16;97402.78;;;17.14;37.63
44385;BME280;30101;32.778;34.994;2023-01-28T00:45:19;97414.31;;;16.99;37.57
44385;BME280;30101;32.778;34.994;2023-01-28T00:50:23;97452.19;;;16.82;37.99
44385;BME280;30101;32.778;34.994;2023-01-28T00:55:28;97452.00;;;16.62;38.09
44385;BME280;30101;32.778;34.994;2023-01-28T01:00:31;97439.81;;;16.54;38.19
44385;BME280;30101;32.778;34.994;2023-01-28T01:05:35;97434.41;;;16.54;38.04
44385;BME280;30101;32.778;34.994;2023-01-28T01:10:39;97438.22;;;16.58;38.34
44385;BME280;30101;32.778;34.994;2023-01-28T01:15:42;97389.69;;;16.58;38.49
44385;BME280;30101;32.778;34.994;2023-01-28T01:20:46;97375.88;;;16.50;38.08
44385;BME280;30101;32.778;34.994;2023-01-28T01:25:49;97337.00;;;16.40;38.87
44385;BME280;30101;32.778;34.994;2023-01-28T01:31:05;97351.59;;;16.44;38.58
44385;BME280;30101;32.778;34.994;2023-01-28T01:36:11;97340.59;;;16.51;38.33
44385;BME280;30101;32.778;34.994;2023-01-28T01:41:30;97329.31;;;16.59;38.52
44385;BME280;30101;32.778;34.994;2023-01-28T01:46:41;97303.97;;;16.55;38.37
44385;BME280;30101;32.778;34.994;2023-01-28T01:51:49;97318.22;;;16.51;37.99
44385;BME280;30101;32.778;34.994;2023-01-28T01:56:56;97337.91;;;16.51;37.94
44385;BME280;30101;32.778;34.994;2023-01-28T02:02:03;97317.19;;;16.57;38.27
44385;BME280;30101;32.778;34.994;2023-01-28T02:07:08;97342.22;;;16.52;38.17
44385;BME280;30101;32.778;34.994;2023-01-28T02:12:29;97337.03;;;16.45;37.92
44385;BME280;30101;32.778;34.994;2023-01-28T02:17:36;97330.34;;;16.48;37.93
44385;BME280;30101;32.778;34.994;2023-01-28T02:28:36;97337.84;;;16.46;38.26
44385;BME280;30101;32.778;34.994;2023-01-28T02:38:48;97347.06;;;16.50;38.07
44385;BME280;30101;32.778;34.994;2023-01-28T02:43:52;97326.03;;;16.52;38.03
44385;BME280;30101;32.778;34.994;2023-01-28T02:48:57;97317.84;;;16.37;38.26
44385;BME280;30101;32.778;34.994;2023-01-28T02:54:10;97340.75;;;16.34;38.16
44385;BME280;30101;32.778;34.994;2023-01-28T03:04:43;97309.22;;;16.35;38.09
44385;BME280;30101;32.778;34.994;2023-01-28T03:09:49;97324.91;;;16.43;38.15
44385;BME280;30101;32.778;34.994;2023-01-28T03:15:03;97338.72;;;16.52;38.04
44385;BME280;30101;32.778;34.994;2023-01-28T03:20:08;97345.97;;;16.51;37.83
44385;BME280;30101;32.778;34.994;2023-01-28T03:25:14;97347.59;;;16.52;38.25
44385;BME280;30101;32.778;34.994;2023-01-28T03:30:35;97336.53;;;16.49;38.27
44385;BME280;30101;32.778;34.994;2023-01-28T03:35:46;97389.84;;;16.41;38.06
44385;BME280;30101;32.778;34.994;2023-01-28T03:40:58;97355.91;;;16.45;38.07
44385;BME280;30101;32.778;34.994;2023-01-28T03:46:03;97389.59;;;16.43;37.85
44385;BME280;30101;32.778;34.994;2023-01-28T03:51:06;97347.50;;;16.37;38.46
44385;BME280;30101;32.778;34.994;2023-01-28T03:56:09;97319.44;;;16.33;38.42
44385;BME280;30101;32.778;34.994;2023-01-28T04:01:14;97351.16;;;16.26;38.19
44385;BME280;30101;32.778;34.994;2023-01-28T04:06:18;97368.06;;;16.16;38.72
44385;BME280;30101;32.778;34.994;2023-01-28T04:11:25;97358.59;;;16.13;38.47
44385;BME280;30101;32.778;34.994;2023-01-28T04:16:30;97337.34;;;16.17;38.48
44385;BME280;30101;32.778;34.994;2023-01-28T04:21:35;97335.53;;;16.28;38.60
44385;BME280;30101;32.778;34.994;2023-01-28T04:26:41;97389.53;;;16.38;38.42
44385;BME280;30101;32.778;34.994;2023-01-28T04:31:44;97377.22;;;16.47;37.97
44385;BME280;30101;32.778;34.994;2023-01-28T04:36:56;97365.88;;;16.45;38.41
44385;BME280;30101;32.778;34.994;2023-01-28T04:42:35;97377.13;;;16.37;38.43
44385;BME280;30101;32.778;34.994;2023-01-28T04:48:03;97382.78;;;16.35;38.39
44385;BME280;30101;32.778;34.994;2023-01-28T04:53:21;97385.13;;;16.59;37.91
44385;BME280;30101;32.778;34.994;2023-01-28T04:58:47;97369.41;;;16.83;37.88
44385;BME280;30101;32.778;34.994;2023-01-28T05:03:51;97340.72;;;17.09;37.55
44385;BME280;30101;32.778;34.994;2023-01-28T05:09:00;97375.66;;;17.31;37.34
44385;BME280;30101;32.778;34.994;2023-01-28T05:14:05;97391.16;;;17.56;37.16
44385;BME280;30101;32.778;34.994;2023-01-28T05:19:26;97402.06;;;17.76;36.84
44385;BME280;30101;32.778;34.994;2023-01-28T05:24:31;97417.50;;;17.86;36.78
44385;BME280;30101;32.778;34.994;2023-01-28T05:29:35;97442.06;;;17.89;36.68
44385;BME280;30101;32.778;34.994;2023-01-28T05:34:38;97428.31;;;17.96;37.03
44385;BME280;30101;32.778;34.994;2023-01-28T05:39:47;97419.41;;;17.95;36.91
44385;BME280;30101;32.778;34.994;2023-01-28T05:44:50;97427.78;;;17.94;37.40
44385;BME280;30101;32.778;34.994;2023-01-28T05:50:11;97428.34;;;18.01;37.18
44385;BME280;30101;32.778;34.994;2023-01-28T05:55:37;97414.56;;;18.02;37.15
44385;BME280;30101;32.778;34.994;2023-01-28T06:00:41;97414.59;;;18.13;37.07
44385;BME280;30101;32.778;34.994;2023-01-28T06:05:44;97414.31;;;18.14;36.87
44385;BME280;30101;32.778;34.994;2023-01-28T06:10:48;97407.31;;;18.18;36.94
44385;BME280;30101;32.778;34.994;2023-01-28T06:15:51;97371.38;;;18.23;36.61
44385;BME280;30101;32.778;34.994;2023-01-28T06:20:58;97405.69;;;18.32;36.76
44385;BME280;30101;32.778;34.994;2023-01-28T06:26:01;97442.28;;;18.71;36.14
44385;BME280;30101;32.778;34.994;2023-01-28T06:31:05;97457.66;;;19.36;35.74
44385;BME280;30101;32.778;34.994;2023-01-28T06:36:08;97462.22;;;19.46;35.53
44385;BME280;30101;32.778;34.994;2023-01-28T06:41:12;97472.00;;;19.37;36.12
44385;BME280;30101;32.778;34.994;2023-01-28T06:46:15;97449.00;;;19.24;36.05
44385;BME280;30101;32.778;34.994;2023-01-28T06:51:19;97467.69;;;19.21;36.36
44385;BME280;30101;32.778;34.994;2023-01-28T06:56:22;97480.41;;;19.15;36.27
44385;BME280;30101;32.778;34.994;2023-01-28T07:01:26;97502.34;;;19.13;36.85
44385;BME280;30101;32.778;34.994;2023-01-28T07:06:30;97509.63;;;19.08;36.67
44385;BME280;30101;32.778;34.994;2023-01-28T07:11:33;97482.31;;;19.09;37.02
44385;BME280;30101;32.778;34.994;2023-01-28T07:16:37;97496.13;;;19.18;37.05
44385;BME280;30101;32.778;34.994;2023-01-28T07:21:40;97491.22;;;19.25;36.92
44385;BME280;30101;32.778;34.994;2023-01-28T07:26:44;97489.88;;;19.23;36.90
44385;BME280;30101;32.778;34.994;2023-01-28T07:31:49;97476.63;;;19.21;36.85
44385;BME280;30101;32.778;34.994;2023-01-28T07:36:53;97495.28;;;19.23;36.90
44385;BME280;30101;32.778;34.994;2023-01-28T07:41:59;97495.00;;;19.29;36.85
44385;BME280;30101;32.778;34.994;2023-01-28T07:47:10;97496.66;;;19.25;37.03
44385;BME280;30101;32.778;34.994;2023-01-28T07:52:13;97486.91;;;19.24;37.63
44385;BME280;30101;32.778;34.994;2023-01-28T07:57:17;97492.56;;;19.23;37.53
44385;BME280;30101;32.778;34.994;2023-01-28T08:02:20;97487.44;;;19.31;37.52
44385;BME280;30101;32.778;34.994;2023-01-28T08:07:24;97489.59;;;19.45;37.51
44385;BME280;30101;32.778;34.994;2023-01-28T08:12:28;97483.59;;;19.48;37.83
44385;BME280;30101;32.778;34.994;2023-01-28T08:17:32;97474.66;;;19.52;37.70
44385;BME280;30101;32.778;34.994;2023-01-28T08:22:35;97467.63;;;19.56;37.89
44385;BME280;30101;32.778;34.994;2023-01-28T08:27:39;97466.81;;;19.61;37.87
44385;BME280;30101;32.778;34.994;2023-01-28T08:32:42;97457.59;;;19.67;38.10
44385;BME280;30101;32.778;34.994;2023-01-28T08:37:45;97442.69;;;19.75;38.27
44385;BME280;30101;32.778;34.994;2023-01-28T08:42:48;97434.50;;;19.85;38.20
44385;BME280;30101;32.778;34.994;2023-01-28T08:47:55;97433.66;;;19.94;38.43
44385;BME280;30101;32.778;34.994;2023-01-28T08:53:05;97422.50;;;20.06;38.38
44385;BME280;30101;32.778;34.994;2023-01-28T08:58:11;97417.81;;;20.17;38.39
44385;BME280;30101;32.778;34.994;2023-01-28T09:03:15;97397.47;;;20.19;38.72
44385;BME280;30101;32.778;34.994;2023-01-28T09:08:18;97405.81;;;20.28;38.74
44385;BME280;30101;32.778;34.994;2023-01-28T09:13:22;97397.66;;;20.33;38.75
44385;BME280;30101;32.778;34.994;2023-01-28T09:18:25;97398.97;;;20.36;38.81
44385;BME280;30101;32.778;34.994;2023-01-28T09:23:28;97386.53;;;20.35;38.53
44385;BME280;30101;32.778;34.994;2023-01-28T09:28:32;97372.63;;;20.41;38.47
44385;BME280;30101;32.778;34.994;2023-01-28T09:33:37;97374.81;;;20.44;38.52
44385;BME280;30101;32.778;34.994;2023-01-28T09:38:40;97364.78;;;20.40;38.37
44385;BME280;30101;32.778;34.994;2023-01-28T09:48:53;97373.53;;;20.32;39.02
44385;BME280;30101;32.778;34.994;2023-01-28T09:54:01;97363.72;;;20.36;38.85
44385;BME280;30101;32.778;34.994;2023-01-28T09:59:16;97349.03;;;20.42;38.91
44385;BME280;30101;32.778;34.994;2023-01-28T10:04:55;97345.78;;;20.50;38.76
44385;BME280;30101;32.778;34.994;2023-01-28T10:09:58;97344.97;;;20.50;38.85
44385;BME280;30101;32.778;34.994;2023-01-28T10:20:32;97318.59;;;20.55;38.92
44385;BME280;30101;32.778;34.994;2023-01-28T10:25:40;97314.31;;;20.49;39.17
44385;BME280;30101;32.778;34.994;2023-01-28T10:30:46;97298.06;;;20.49;39.12
44385;BME280;30101;32.778;34.994;2023-01-28T10:35:51;97296.72;;;20.46;39.29
44385;BME280;30101;32.778;34.994;2023-01-28T10:41:03;97300.22;;;20.47;39.35
44385;BME280;30101;32.778;34.994;2023-01-28T10:46:35;97289.66;;;20.45;39.21
44385;BME280;30101;32.778;34.994;2023-01-28T10:51:40;97291.78;;;20.48;39.59
44385;BME280;30101;32.778;34.994;2023-01-28T10:56:44;97287.13;;;20.54;39.59
44385;BME280;30101;32.778;34.994;2023-01-28T11:01:53;97278.97;;;20.59;39.67
44385;BME280;30101;32.778;34.994;2023-01-28T11:07:13;97289.59;;;20.56;39.93
44385;BME280;30101;32.778;34.994;2023-01-28T11:12:24;97276.56;;;20.53;39.66
44385;BME280;30101;32.778;34.994;2023-01-28T11:17:31;97278.53;;;20.47;40.05
44385;BME280;30101;32.778;34.994;2023-01-28T11:22:41;97275.03;;;20.41;40.24
44385;BME280;30101;32.778;34.994;2023-01-28T11:27:49;97275.34;;;20.35;40.15
44385;BME280;30101;32.778;34.994;2023-01-28T11:33:04;97275.94;;;20.32;40.55
44385;BME280;30101;32.778;34.994;2023-01-28T11:38:18;97287.63;;;20.27;40.97
44385;BME280;30101;32.778;34.994;2023-01-28T11:43:30;97311.28;;;20.16;41.95
44385;BME280;30101;32.778;34.994;2023-01-28T11:49:10;97295.97;;;19.97;43.70
44385;BME280;30101;32.778;34.994;2023-01-28T11:59:52;97300.53;;;19.62;46.56
44385;BME280;30101;32.778;34.994;2023-01-28T12:31:59;97319.00;;;19.50;52.88
44385;BME280;30101;32.778;34.994;2023-01-28T12:42:49;97321.69;;;19.55;54.00
44385;BME280;30101;32.778;34.994;2023-01-28T12:47:59;97331.38;;;19.66;54.57
44385;BME280;30101;32.778;34.994;2023-01-28T12:53:21;97331.94;;;19.68;55.15
44385;BME280;30101;32.778;34.994;2023-01-28T12:59:32;97336.84;;;19.56;55.53
44385;BME280;30101;32.778;34.994;2023-01-28T13:09:21;97341.50;;;19.40;57.03
44385;BME280;30101;32.778;34.994;2023-01-28T13:14:31;97347.50;;;19.27;57.16
44385;BME280;30101;32.778;34.994;2023-01-28T13:19:40;97358.34;;;19.22;58.05
44385;BME280;30101;32.778;34.994;2023-01-28T13:24:44;97364.63;;;18.97;59.12
44385;BME280;30101;32.778;34.994;2023-01-28T13:29:47;97370.31;;;18.85;58.28
44385;BME280;30101;32.778;34.994;2023-01-28T13:35:06;97376.84;;;18.69;59.09
44385;BME280;30101;32.778;34.994;2023-01-28T13:50:24;97392.19;;;18.38;61.32
44385;BME280;30101;32.778;34.994;2023-01-28T13:55:36;97408.38;;;18.22;61.96
44385;BME280;30101;32.778;34.994;2023-01-28T14:01:06;97418.06;;;17.98;62.40
44385;BME280;30101;32.778;34.994;2023-01-28T14:22:33;97434.38;;;17.61;63.47
44385;BME280;30101;32.778;34.994;2023-01-28T14:27:44;97436.50;;;17.59;63.57
44385;BME280;30101;32.778;34.994;2023-01-28T14:32:50;97455.41;;;17.59;63.54
44385;BME280;30101;32.778;34.994;2023-01-28T14:37:55;97455.63;;;17.52;63.92
44385;BME280;30101;32.778;34.994;2023-01-28T14:43:00;97459.94;;;17.48;64.23
44385;BME280;30101;32.778;34.994;2023-01-28T14:58:50;97464.97;;;17.29;64.98
44385;BME280;30101;32.778;34.994;2023-01-28T15:03:55;97476.25;;;17.26;65.10
44385;BME280;30101;32.778;34.994;2023-01-28T15:09:07;97480.00;;;17.20;65.59
44385;BME280;30101;32.778;34.994;2023-01-28T15:14:25;97484.25;;;17.11;65.83
44385;BME280;30101;32.778;34.994;2023-01-28T15:19:32;97484.38;;;16.94;66.70
44385;BME280;30101;32.778;34.994;2023-01-28T15:24:40;97491.56;;;16.83;66.79
44385;BME280;30101;32.778;34.994;2023-01-28T15:34:59;97518.09;;;16.69;67.37
44385;BME280;30101;32.778;34.994;2023-01-28T15:40:05;97518.94;;;16.70;67.59
44385;BME280;30101;32.778;34.994;2023-01-28T15:45:17;97525.47;;;16.74;67.58
44385;BME280;30101;32.778;34.994;2023-01-28T15:50:23;97520.88;;;16.75;67.65
44385;BME280;30101;32.778;34.994;2023-01-28T15:55:38;97530.06;;;16.74;67.98
44385;BME280;30101;32.778;34.994;2023-01-28T16:00:42;97535.13;;;16.70;68.17
44385;BME280;30101;32.778;34.994;2023-01-28T16:06:00;97537.72;;;16.60;68.07
44385;BME280;30101;32.778;34.994;2023-01-28T16:11:07;97539.75;;;16.53;68.63
44385;BME280;30101;32.778;34.994;2023-01-28T16:16:11;97541.91;;;16.51;68.61
44385;BME280;30101;32.778;34.994;2023-01-28T16:21:23;97555.91;;;16.48;68.65
44385;BME280;30101;32.778;34.994;2023-01-28T16:26:29;97560.66;;;16.40;68.78
44385;BME280;30101;32.778;34.994;2023-01-28T16:31:33;97559.53;;;16.36;68.81
44385;BME280;30101;32.778;34.994;2023-01-28T16:36:36;97569.44;;;16.31;69.67
44385;BME280;30101;32.778;34.994;2023-01-28T16:41:43;97572.94;;;16.31;69.42
44385;BME280;30101;32.778;34.994;2023-01-28T16:46:47;97585.88;;;16.29;69.73
44385;BME280;30101;32.778;34.994;2023-01-28T16:51:51;97591.47;;;16.28;69.71
44385;BME280;30101;32.778;34.994;2023-01-28T16:56:59;97601.69;;;16.26;70.02
44385;BME280;30101;32.778;34.994;2023-01-28T17:02:02;97596.56;;;16.24;70.05
44385;BME280;30101;32.778;34.994;2023-01-28T17:07:06;97598.91;;;16.15;69.98
44385;BME280;30101;32.778;34.994;2023-01-28T17:12:10;97597.41;;;16.08;70.12
44385;BME280;30101;32.778;34.994;2023-01-28T17:17:15;97611.31;;;16.00;70.72
44385;BME280;30101;32.778;34.994;2023-01-28T17:22:18;97618.78;;;15.93;69.37
44385;BME280;30101;32.778;34.994;2023-01-28T17:27:21;97628.66;;;15.87;69.84
44385;BME280;30101;32.778;34.994;2023-01-28T17:32:25;97629.56;;;15.76;70.39
44385;BME280;30101;32.778;34.994;2023-01-28T17:37:28;97637.78;;;15.69;69.48
44385;BME280;30101;32.778;34.994;2023-01-28T17:42:34;97639.59;;;15.63;69.98
44385;BME280;30101;32.778;34.994;2023-01-28T17:47:37;97639.72;;;15.57;70.50
44385;BME280;30101;32.778;34.994;2023-01-28T17:52:40;97646.31;;;15.49;70.67
44385;BME280;30101;32.778;34.994;2023-01-28T17:57:44;97642.19;;;15.42;70.73
44385;BME280;30101;32.778;34.994;2023-01-28T18:02:50;97643.41;;;15.34;69.90
44385;BME280;30101;32.778;34.994;2023-01-28T18:07:53;97647.88;;;15.28;70.64
44385;BME280;30101;32.778;34.994;2023-01-28T18:12:56;97650.72;;;15.22;69.89
44385;BME280;30101;32.778;34.994;2023-01-28T18:17:59;97677.25;;;15.18;69.16
44385;BME280;30101;32.778;34.994;2023-01-28T18:23:03;97674.81;;;15.17;69.86
44385;BME280;30101;32.778;34.994;2023-01-28T18:28:06;97692.25;;;15.14;68.94
44385;BME280;30101;32.778;34.994;2023-01-28T18:33:09;97690.63;;;15.13;69.89
44385;BME280;30101;32.778;34.994;2023-01-28T18:38:12;97698.69;;;15.13;69.13
44385;BME280;30101;32.778;34.994;2023-01-28T18:43:15;97702.78;;;15.16;68.34
44385;BME280;30101;32.778;34.994;2023-01-28T18:48:19;97694.56;;;15.22;69.14
44385;BME280;30101;32.778;34.994;2023-01-28T18:53:23;97709.88;;;15.22;69.57
44385;BME280;30101;32.778;34.994;2023-01-28T18:58:26;97709.88;;;15.22;69.35
44385;BME280;30101;32.778;34.994;2023-01-28T19:03:31;97702.28;;;15.19;69.62
44385;BME280;30101;32.778;34.994;2023-01-28T19:08:35;97713.53;;;15.16;69.58
44385;BME280;30101;32.778;34.994;2023-01-28T19:13:38;97707.00;;;15.11;69.85
44385;BME280;30101;32.778;34.994;2023-01-28T19:18:41;97703.13;;;15.07;69.63
44385;BME280;30101;32.778;34.994;2023-01-28T19:23:45;97705.75;;;15.02;69.13
44385;BME280;30101;32.778;34.994;2023-01-28T19:28:52;97698.41;;;14.98;69.58
44385;BME280;30101;32.778;34.994;2023-01-28T19:33:55;97699.94;;;14.94;68.85
44385;BME280;30101;32.778;34.994;2023-01-28T19:39:02;97700.16;;;14.92;69.21
44385;BME280;30101;32.778;34.994;2023-01-28T19:44:06;97700.88;;;14.88;69.30
44385;BME280;30101;32.778;34.994;2023-01-28T19:49:09;97700.31;;;14.86;69.33
44385;BME280;30101;32.778;34.994;2023-01-28T19:54:14;97704.75;;;14.80;68.91
44385;BME280;30101;32.778;34.994;2023-01-28T19:59:18;97705.00;;;14.78;68.91
44385;BME280;30101;32.778;34.994;2023-01-28T20:04:21;97708.97;;;14.76;69.13
44385;BME280;30101;32.778;34.994;2023-01-28T20:09:28;97703.28;;;14.72;68.95
44385;BME280;30101;32.778;34.994;2023-01-28T20:14:32;97693.72;;;14.65;68.84
44385;BME280;30101;32.778;34.994;2023-01-28T20:19:36;97702.81;;;14.64;68.65
44385;BME280;30101;32.778;34.994;2023-01-28T20:24:40;97695.47;;;14.59;68.81
44385;BME280;30101;32.778;34.994;2023-01-28T20:29:44;97697.34;;;14.59;68.70
44385;BME280;30101;32.778;34.994;2023-01-28T20:34:47;97689.19;;;14.53;68.53
44385;BME280;30101;32.778;34.994;2023-01-28T20:39:51;97686.50;;;14.53;68.24
44385;BME280;30101;32.778;34.994;2023-01-28T20:44:54;97684.88;;;14.52;68.39
44385;BME280;30101;32.778;34.994;2023-01-28T20:49:57;97688.81;;;14.50;67.89
44385;BME280;30101;32.778;34.994;2023-01-28T20:55:00;97675.41;;;14.50;68.09
44385;BME280;30101;32.778;34.994;2023-01-28T21:00:05;97673.53;;;14.50;67.89
44385;BME280;30101;32.778;34.994;2023-01-28T21:05:08;97664.06;;;14.48;68.33
44385;BME280;30101;32.778;34.994;2023-01-28T21:10:12;97664.31;;;14.46;68.41
44385;BME280;30101;32.778;34.994;2023-01-28T21:15:15;97662.06;;;14.43;67.93
44385;BME280;30101;32.778;34.994;2023-01-28T21:20:18;97660.06;;;14.39;67.54
44385;BME280;30101;32.778;34.994;2023-01-28T21:25:21;97655.50;;;14.39;68.09
44385;BME280;30101;32.778;34.994;2023-01-28T21:30:25;97658.44;;;14.38;67.59
44385;BME280;30101;32.778;34.994;2023-01-28T21:35:28;97652.50;;;14.36;67.96
44385;BME280;30101;32.778;34.994;2023-01-28T21:40:33;97658.94;;;14.35;67.89
44385;BME280;30101;32.778;34.994;2023-01-28T21:45:38;97660.88;;;14.39;67.82
44385;BME280;30101;32.778;34.994;2023-01-28T21:50:43;97652.03;;;14.50;67.44
44385;BME280;30101;32.778;34.994;2023-01-28T21:55:47;97659.03;;;14.51;67.65
44385;BME280;30101;32.778;34.994;2023-01-28T22:00:51;97660.34;;;14.49;67.87
44385;BME280;30101;32.778;34.994;2023-01-28T22:05:54;97649.59;;;14.49;67.41
44385;BME280;30101;32.778;34.994;2023-01-28T22:11:01;97646.91;;;14.49;67.25
44385;BME280;30101;32.778;34.994;2023-01-28T22:16:05;97646.91;;;14.49;67.64
44385;BME280;30101;32.778;34.994;2023-01-28T22:21:10;97645.50;;;14.46;67.35
44385;BME280;30101;32.778;34.994;2023-01-28T22:26:15;97641.97;;;14.46;67.16
44385;BME280;30101;32.778;34.994;2023-01-28T22:31:19;97630.88;;;14.42;67.25
44385;BME280;30101;32.778;34.994;2023-01-28T22:36:23;97632.19;;;14.40;67.38
44385;BME280;30101;32.778;34.994;2023-01-28T22:41:27;97640.47;;;14.38;66.91
44385;BME280;30101;32.778;34.994;2023-01-28T22:46:31;97626.22;;;14.38;67.38
44385;BME280;30101;32.778;34.994;2023-01-28T22:51:35;97633.72;;;14.36;66.65
44385;BME280;30101;32.778;34.994;2023-01-28T22:56:38;97632.31;;;14.33;66.94
44385;BME280;30101;32.778;34.994;2023-01-28T23:01:43;97626.09;;;14.32;66.66
44385;BME280;30101;32.778;34.994;2023-01-28T23:06:46;97626.59;;;14.29;66.43
44385;BME280;30101;32.778;34.994;2023-01-28T23:11:50;97631.59;;;14.26;66.40
44385;BME280;30101;32.778;34.994;2023-01-28T23:16:53;97632.91;;;14.23;66.46
44385;BME280;30101;32.778;34.994;2023-01-28T23:21:56;97626.72;;;14.23;66.14
44385;BME280;30101;32.778;34.994;2023-01-28T23:27:00;97624.28;;;14.21;65.96
44385;BME280;30101;32.778;34.994;2023-01-28T23:32:05;97626.16;;;14.21;65.98
44385;BME280;30101;32.778;34.994;2023-01-28T23:37:11;97630.47;;;14.22;65.75
44385;BME280;30101;32.778;34.994;2023-01-28T23:42:19;97630.09;;;14.18;65.23
44385;BME280;30101;32.778;34.994;2023-01-28T23:47:23;97634.09;;;14.16;65.66
44385;BME280;30101;32.778;34.994;2023-01-28T23:52:26;97626.28;;;14.14;65.49
44385;BME280;30101;32.778;34.994;2023-01-28T23:57:29;97620.31;;;14.12;65.44
